createdAt,value
2023-03-12T00:01:27.749Z,3.39
2023-03-12T00:03:58.848Z,3.40
2023-03-12T00:06:27.941Z,3.33
2023-03-12T00:08:56.800Z,3.29
2023-03-12T00:11:25.737Z,3.27
2023-03-12T00:13:57.940Z,3.21
2023-03-12T00:16:27.372Z,3.12
2023-03-12T00:18:56.508Z,3.08
2023-03-12T00:21:26.030Z,3.01
2023-03-12T00:23:54.916Z,2.96
2023-03-12T00:26:23.910Z,2.87
2023-03-12T00:28:52.851Z,2.77
2023-03-12T00:31:32.961Z,2.77
2023-03-12T00:34:03.090Z,2.76
2023-03-12T00:36:33.596Z,2.79
2023-03-12T00:39:02.793Z,2.73
2023-03-12T00:41:31.784Z,2.69
2023-03-12T00:44:01.064Z,2.75
2023-03-12T00:46:30.413Z,2.74
2023-03-12T00:48:59.188Z,2.67
2023-03-12T00:51:28.116Z,2.71
2023-03-12T00:53:56.947Z,2.67
2023-03-12T00:56:26.109Z,2.70
2023-03-12T00:58:55.275Z,2.68
2023-03-12T01:01:24.328Z,2.63
2023-03-12T01:03:53.619Z,2.66
2023-03-12T01:06:22.543Z,2.63
2023-03-12T01:08:51.382Z,2.57
2023-03-12T01:11:21.168Z,2.58
2023-03-12T01:13:50.077Z,2.59
2023-03-12T01:16:18.947Z,2.50
2023-03-12T01:18:47.683Z,2.52
2023-03-12T01:21:16.567Z,2.48
2023-03-12T01:23:45.419Z,2.39
2023-03-12T01:26:14.172Z,2.43
2023-03-12T01:28:43.004Z,2.37
2023-03-12T01:31:15.874Z,2.31
2023-03-12T01:33:45.182Z,2.30
2023-03-12T01:36:23.511Z,2.30
2023-03-12T01:38:55.082Z,2.32
2023-03-12T01:41:26.709Z,2.27
2023-03-12T01:43:55.568Z,2.26
2023-03-12T01:46:35.815Z,2.25
2023-03-12T01:49:19.418Z,2.23
2023-03-12T01:52:13.341Z,2.24
2023-03-12T01:54:53.581Z,2.20
2023-03-12T01:57:49.221Z,2.14
2023-03-12T02:00:25.632Z,2.15
2023-03-12T02:03:00.161Z,2.15
2023-03-12T02:05:45.436Z,2.03
2023-03-12T02:08:16.707Z,2.08
2023-03-12T02:10:46.751Z,1.95
2023-03-12T02:13:16.419Z,1.89
2023-03-12T02:15:46.725Z,1.76
2023-03-12T02:18:19.925Z,1.73
2023-03-12T02:20:57.588Z,1.70
2023-03-12T02:23:48.122Z,1.59
2023-03-12T02:26:19.277Z,1.62
2023-03-12T02:28:50.447Z,1.59
2023-03-12T02:31:26.054Z,1.53
2023-03-12T02:33:56.165Z,1.55
2023-03-12T02:36:24.972Z,1.58
2023-03-12T02:38:54.872Z,1.49
2023-03-12T02:41:31.806Z,1.49
2023-03-12T02:44:12.862Z,1.52
2023-03-12T02:46:46.706Z,1.55
2023-03-12T02:49:17.767Z,1.47
2023-03-12T02:51:47.858Z,1.54
2023-03-12T02:54:18.960Z,1.51
2023-03-12T02:56:49.574Z,1.51
2023-03-12T02:59:22.029Z,1.38
2023-03-12T03:01:59.105Z,1.37
2023-03-12T03:04:30.936Z,1.33
2023-03-12T03:06:59.725Z,1.32
2023-03-12T03:09:28.536Z,1.25
2023-03-12T03:11:57.508Z,1.22
2023-03-12T03:14:26.991Z,1.21
2023-03-12T03:16:55.871Z,1.18
2023-03-12T03:19:24.741Z,1.12
2023-03-12T03:21:53.693Z,1.15
2023-03-12T03:24:22.432Z,1.15
2023-03-12T03:26:51.132Z,1.10
2023-03-12T03:29:19.999Z,1.04
2023-03-12T03:31:49.168Z,1.06
2023-03-12T03:34:18.687Z,1.08
2023-03-12T03:36:47.720Z,1.04
2023-03-12T03:39:17.586Z,1.09
2023-03-12T03:41:47.580Z,1.08
2023-03-12T03:44:18.610Z,1.02
2023-03-12T03:46:48.281Z,1.04
2023-03-12T03:49:17.780Z,1.04
2023-03-12T03:51:46.889Z,1.06
2023-03-12T03:54:18.494Z,1.08
2023-03-12T03:56:47.819Z,1.10
2023-03-12T03:59:16.889Z,1.03
2023-03-12T04:01:46.072Z,1.02
2023-03-12T04:04:15.127Z,0.96
2023-03-12T04:06:44.260Z,0.89
2023-03-12T04:09:13.226Z,0.88
2023-03-12T04:11:42.147Z,0.88
2023-03-12T04:14:11.918Z,0.81
2023-03-12T04:16:42.252Z,0.76
2023-03-12T04:19:11.137Z,0.74
2023-03-12T04:21:39.956Z,0.72
2023-03-12T04:24:14.906Z,0.70
2023-03-12T04:26:44.327Z,0.64
2023-03-12T04:29:13.422Z,0.65
2023-03-12T04:31:43.618Z,0.63
2023-03-12T04:34:14.539Z,0.64
2023-03-12T04:36:44.004Z,0.64
2023-03-12T04:39:13.480Z,0.61
2023-03-12T04:41:42.331Z,0.56
2023-03-12T04:44:16.454Z,0.53
2023-03-12T04:46:46.356Z,0.51
2023-03-12T04:49:17.918Z,0.53
2023-03-12T04:51:47.338Z,0.52
2023-03-12T04:54:16.638Z,0.50
2023-03-12T04:56:45.540Z,0.48
2023-03-12T04:59:14.934Z,0.51
2023-03-12T05:01:44.317Z,0.49
2023-03-12T05:04:20.224Z,0.53
2023-03-12T05:06:49.359Z,0.54
2023-03-12T05:09:18.199Z,0.60
2023-03-12T05:11:47.728Z,0.61
2023-03-12T05:14:18.325Z,0.66
2023-03-12T05:16:47.656Z,0.66
2023-03-12T05:19:16.566Z,0.68
2023-03-12T05:21:45.366Z,0.72
2023-03-12T05:24:14.224Z,0.71
2023-03-12T05:26:43.470Z,0.76
2023-03-12T05:29:19.975Z,0.83
2023-03-12T05:31:50.066Z,0.89
2023-03-12T05:34:19.214Z,0.93
2023-03-12T05:36:48.456Z,0.99
2023-03-12T05:39:20.788Z,1.02
2023-03-12T05:41:49.739Z,1.08
2023-03-12T05:44:20.615Z,1.12
2023-03-12T05:46:54.020Z,1.18
2023-03-12T05:49:25.177Z,1.22
2023-03-12T05:51:55.061Z,1.27
2023-03-12T05:54:24.465Z,1.42
2023-03-12T05:56:53.716Z,1.49
2023-03-12T05:59:22.854Z,1.56
2023-03-12T06:01:51.783Z,1.57
2023-03-12T06:04:20.758Z,1.75
2023-03-12T06:06:49.573Z,1.79
2023-03-12T06:09:18.368Z,1.92
2023-03-12T06:11:47.254Z,1.94
2023-03-12T06:14:16.053Z,1.98
2023-03-12T06:16:45.655Z,2.03
2023-03-12T06:19:15.069Z,1.99
2023-03-12T06:21:45.656Z,1.99
2023-03-12T06:24:14.628Z,2.12
2023-03-12T06:26:51.741Z,2.20
2023-03-12T06:29:20.486Z,2.21
2023-03-12T06:31:52.514Z,2.29
2023-03-12T06:34:21.332Z,2.36
2023-03-12T06:36:50.092Z,2.41
2023-03-12T06:39:18.996Z,2.43
2023-03-12T06:41:47.758Z,2.44
2023-03-12T06:44:17.266Z,2.53
2023-03-12T06:46:46.326Z,2.63
2023-03-12T06:49:16.057Z,2.76
2023-03-12T06:51:44.871Z,2.78
2023-03-12T06:54:13.643Z,2.81
2023-03-12T06:56:42.550Z,2.82
2023-03-12T06:59:11.456Z,2.92
2023-03-12T07:01:40.390Z,2.85
2023-03-12T07:04:09.188Z,2.68
2023-03-12T07:06:38.099Z,2.71
2023-03-12T07:09:07.315Z,2.60
2023-03-12T07:11:36.636Z,2.64
2023-03-12T07:14:05.461Z,2.88
2023-03-12T07:16:35.306Z,2.95
2023-03-12T07:19:04.954Z,2.99
2023-03-12T07:21:34.162Z,2.87
2023-03-12T07:24:07.064Z,2.85
2023-03-12T07:26:36.257Z,2.83
2023-03-12T07:29:05.447Z,2.72
2023-03-12T07:31:34.281Z,2.76
2023-03-12T07:34:03.463Z,3.02
2023-03-12T07:36:33.687Z,3.02
2023-03-12T07:39:02.682Z,3.12
2023-03-12T07:41:31.667Z,2.97
2023-03-12T07:44:00.778Z,2.85
2023-03-12T07:46:29.900Z,2.82
2023-03-12T07:48:58.743Z,2.75
2023-03-12T07:51:27.851Z,2.58
2023-03-12T07:53:57.059Z,2.58
2023-03-12T07:56:25.978Z,2.73
2023-03-12T07:58:55.536Z,2.98
2023-03-12T08:01:25.712Z,3.05
2023-03-12T08:03:54.449Z,2.94
2023-03-12T08:06:23.225Z,3.02
2023-03-12T08:08:52.397Z,2.94
2023-03-12T08:11:21.704Z,2.72
2023-03-12T08:13:51.054Z,2.66
2023-03-12T08:16:19.886Z,2.72
2023-03-12T08:18:48.723Z,2.69
2023-03-12T08:21:17.718Z,2.80
2023-03-12T08:23:46.504Z,2.91
2023-03-12T08:26:15.752Z,2.88
2023-03-12T08:28:44.685Z,3.11
2023-03-12T08:31:16.608Z,3.14
2023-03-12T08:33:47.178Z,3.10
2023-03-12T08:36:16.024Z,3.08
2023-03-12T08:38:44.749Z,3.06
2023-03-12T08:41:13.684Z,3.07
2023-03-12T08:43:42.634Z,3.07
2023-03-12T08:46:12.516Z,3.30
2023-03-12T08:48:41.442Z,3.51
2023-03-12T08:51:10.345Z,3.55
2023-03-12T08:53:39.465Z,3.63
2023-03-12T08:56:08.685Z,3.82
2023-03-12T08:58:37.452Z,4.03
2023-03-12T09:01:12.299Z,4.09
2023-03-12T09:03:44.265Z,3.91
2023-03-12T09:06:17.096Z,3.83
2023-03-12T09:08:46.587Z,3.72
2023-03-12T09:11:15.873Z,3.68
2023-03-12T09:14:14.946Z,3.72
2023-03-12T09:16:35.006Z,3.78
2023-03-12T09:19:03.935Z,3.83
2023-03-12T09:21:32.750Z,3.91
2023-03-12T09:24:01.584Z,4.03
2023-03-12T09:26:30.385Z,4.14
2023-03-12T09:28:59.446Z,4.05
2023-03-12T09:31:28.548Z,4.11
2023-03-12T09:33:57.719Z,4.20
2023-03-12T09:36:26.606Z,4.29
2023-03-12T09:38:55.437Z,4.50
2023-03-12T09:41:31.798Z,4.47
2023-03-12T09:44:19.665Z,4.39
2023-03-12T09:46:59.120Z,4.44
2023-03-12T09:49:45.521Z,4.35
2023-03-12T09:52:42.219Z,4.47
2023-03-12T09:55:23.606Z,4.70
2023-03-12T09:57:53.372Z,4.87
2023-03-12T10:00:32.821Z,4.81
2023-03-12T10:04:05.428Z,4.84
2023-03-12T10:06:46.886Z,4.90
2023-03-12T10:09:37.034Z,5.00
2023-03-12T10:12:41.827Z,5.14
2023-03-12T10:15:34.606Z,5.30
2023-03-12T10:18:25.644Z,5.31
2023-03-12T10:21:18.574Z,5.25
2023-03-12T10:24:37.312Z,5.24
2023-03-12T10:27:17.161Z,5.29
2023-03-12T10:29:51.270Z,5.37
2023-03-12T10:32:44.003Z,5.35
2023-03-12T10:35:21.758Z,5.38
2023-03-12T10:38:04.868Z,5.68
2023-03-12T10:40:36.861Z,6.07
2023-03-12T10:43:07.311Z,6.12
2023-03-12T10:46:06.442Z,6.10
2023-03-12T10:48:35.327Z,6.47
2023-03-12T10:51:13.411Z,6.73
2023-03-12T10:53:48.482Z,7.02
2023-03-12T10:56:20.414Z,7.25
2023-03-12T10:58:54.321Z,7.05
2023-03-12T11:01:31.367Z,7.36
2023-03-12T11:04:26.173Z,7.30
2023-03-12T11:07:21.580Z,7.06
2023-03-12T11:10:21.154Z,7.36
2023-03-12T11:13:06.082Z,7.41
2023-03-12T11:15:44.824Z,7.45
2023-03-12T11:18:34.091Z,7.72
2023-03-12T11:21:10.033Z,7.95
2023-03-12T11:23:44.050Z,7.99
2023-03-12T11:26:22.818Z,7.87
2023-03-12T11:29:05.053Z,7.97
2023-03-12T11:31:47.203Z,8.16
2023-03-12T11:34:32.019Z,8.10
2023-03-12T11:37:22.228Z,8.30
2023-03-12T11:40:10.074Z,8.55
2023-03-12T11:43:13.790Z,8.63
2023-03-12T11:46:00.484Z,8.61
2023-03-12T11:48:47.777Z,8.94
2023-03-12T11:51:45.813Z,9.15
2023-03-12T11:54:20.413Z,9.41
2023-03-12T11:57:13.134Z,9.43
2023-03-12T12:00:00.812Z,9.41
2023-03-12T12:02:52.896Z,9.13
2023-03-12T12:05:37.881Z,9.23
2023-03-12T12:08:39.575Z,9.44
2023-03-12T12:11:29.786Z,9.59
2023-03-12T12:14:25.960Z,9.44
2023-03-12T12:17:33.522Z,9.69
2023-03-12T12:20:31.030Z,10.15
2023-03-12T12:23:28.828Z,10.11
2023-03-12T12:26:07.275Z,9.88
2023-03-12T12:29:10.717Z,10.31
2023-03-12T12:31:56.857Z,10.06
2023-03-12T12:34:45.998Z,9.74
2023-03-12T12:37:48.394Z,10.36
2023-03-12T12:40:29.802Z,10.36
2023-03-12T12:43:16.249Z,10.12
2023-03-12T12:45:48.755Z,10.38
2023-03-12T12:48:25.039Z,10.92
2023-03-12T12:50:55.877Z,10.96
2023-03-12T12:53:33.451Z,11.44
2023-03-12T12:56:17.717Z,11.52
2023-03-12T12:59:25.410Z,11.59
2023-03-12T13:01:57.831Z,11.81
2023-03-12T13:04:38.186Z,11.73
2023-03-12T13:07:12.969Z,11.79
2023-03-12T13:09:47.972Z,12.55
2023-03-12T13:12:25.721Z,12.63
2023-03-12T13:14:57.497Z,12.61
2023-03-12T13:17:59.414Z,12.72
2023-03-12T13:21:19.683Z,12.65
2023-03-12T13:24:10.509Z,12.82
2023-03-12T13:26:49.917Z,12.54
2023-03-12T13:29:36.572Z,13.29
2023-03-12T13:32:09.286Z,12.87
2023-03-12T13:34:46.817Z,13.04
2023-03-12T13:37:29.072Z,13.10
2023-03-12T13:40:02.461Z,12.81
2023-03-12T13:42:41.983Z,12.78
2023-03-12T13:46:11.324Z,12.89
2023-03-12T13:48:46.137Z,12.84
2023-03-12T13:51:22.201Z,13.12
2023-03-12T13:54:00.517Z,13.27
2023-03-12T13:56:33.571Z,13.91
2023-03-12T13:59:14.388Z,13.89
2023-03-12T14:01:51.083Z,13.61
2023-03-12T14:04:44.530Z,13.58
2023-03-12T14:07:57.845Z,13.21
2023-03-12T14:10:56.736Z,13.28
2023-03-12T14:13:46.742Z,14.08
2023-03-12T14:16:50.760Z,14.71
2023-03-12T14:19:25.464Z,14.49
2023-03-12T14:21:57.456Z,14.83
2023-03-12T14:24:51.568Z,15.11
2023-03-12T14:27:27.956Z,14.87
2023-03-12T14:30:22.376Z,14.66
2023-03-12T14:33:00.156Z,14.62
2023-03-12T14:35:39.191Z,14.00
2023-03-12T14:38:21.964Z,14.11
2023-03-12T14:41:29.462Z,14.39
2023-03-12T14:44:24.306Z,14.41
2023-03-12T14:47:04.213Z,15.32
2023-03-12T14:49:39.193Z,15.38
2023-03-12T14:52:11.419Z,15.18
2023-03-12T14:54:40.722Z,14.56
2023-03-12T14:57:23.527Z,13.58
2023-03-12T14:59:55.257Z,14.40
2023-03-12T15:02:26.056Z,14.35
2023-03-12T15:04:58.308Z,14.12
2023-03-12T15:07:41.923Z,14.08
2023-03-12T15:10:26.755Z,13.71
2023-03-12T15:12:59.463Z,13.67
2023-03-12T15:15:50.320Z,13.74
2023-03-12T15:18:26.030Z,13.87
2023-03-12T15:20:57.554Z,14.33
2023-03-12T15:23:30.327Z,14.56
2023-03-12T15:26:14.693Z,13.63
2023-03-12T15:28:43.788Z,13.82
2023-03-12T15:31:17.565Z,14.39
2023-03-12T15:34:01.317Z,14.61
2023-03-12T15:36:32.424Z,14.65
2023-03-12T15:43:21.575Z,14.40
2023-03-12T15:46:04.026Z,13.89
2023-03-12T15:48:41.363Z,13.74
2023-03-12T15:51:29.518Z,13.21
2023-03-12T15:54:22.002Z,12.18
2023-03-12T15:56:50.883Z,11.26
2023-03-12T15:59:28.357Z,10.42
2023-03-12T16:01:57.278Z,9.72
2023-03-12T16:04:26.072Z,9.18
2023-03-12T16:06:55.233Z,8.75
2023-03-12T16:09:27.248Z,8.34
2023-03-12T16:11:57.212Z,7.96
2023-03-12T16:14:36.597Z,7.61
2023-03-12T16:17:06.396Z,7.20
2023-03-12T16:19:35.278Z,6.89
2023-03-12T16:22:04.365Z,6.61
2023-03-12T16:24:33.224Z,6.33
2023-03-12T16:27:07.279Z,6.16
2023-03-12T16:29:38.843Z,5.95
2023-03-12T16:32:17.606Z,5.80
2023-03-12T16:34:46.613Z,5.59
2023-03-12T16:37:15.617Z,5.44
2023-03-12T16:39:46.715Z,5.23
2023-03-12T16:42:21.135Z,5.07
2023-03-12T16:44:49.992Z,4.85
2023-03-12T16:47:18.907Z,4.70
2023-03-12T16:49:47.688Z,4.56
2023-03-12T16:52:24.261Z,4.45
2023-03-12T16:54:53.631Z,4.29
2023-03-12T16:58:14.268Z,4.11
2023-03-12T17:00:43.740Z,3.83
2023-03-12T17:03:38.574Z,3.60
2023-03-12T17:06:08.787Z,3.34
2023-03-12T17:08:38.865Z,3.21
2023-03-12T17:11:38.238Z,3.11
2023-03-12T17:14:33.375Z,2.94
2023-03-12T17:17:02.382Z,2.75
2023-03-12T17:19:31.953Z,2.59
2023-03-12T17:22:01.548Z,2.48
2023-03-12T17:24:30.891Z,2.33
2023-03-12T17:27:00.913Z,2.23
2023-03-12T17:29:29.805Z,2.12
2023-03-12T17:31:58.709Z,2.00
2023-03-12T17:34:27.586Z,1.86
2023-03-12T17:36:56.472Z,1.79
2023-03-12T17:39:30.376Z,1.72
2023-03-12T17:42:01.222Z,1.65
2023-03-12T17:44:37.618Z,1.56
2023-03-12T17:47:07.140Z,1.48
2023-03-12T17:49:36.164Z,1.39
2023-03-12T17:52:05.268Z,1.28
2023-03-12T17:54:34.074Z,1.16
2023-03-12T17:57:06.107Z,1.01
2023-03-12T17:59:34.975Z,0.89
2023-03-12T18:02:04.652Z,0.79
2023-03-12T18:04:33.684Z,0.69
2023-03-12T18:07:04.049Z,0.61
2023-03-12T18:09:33.346Z,0.55
2023-03-12T18:12:03.203Z,0.48
2023-03-12T18:14:33.310Z,0.43
2023-03-12T18:17:08.009Z,0.41
2023-03-12T18:19:38.615Z,0.34
2023-03-12T18:22:16.355Z,0.31
2023-03-12T18:24:45.417Z,0.26
2023-03-12T18:27:14.269Z,0.20
2023-03-12T18:29:43.083Z,0.16
2023-03-12T18:32:12.143Z,0.11
2023-03-12T18:34:44.214Z,0.07
2023-03-12T18:37:14.382Z,0.05
2023-03-12T18:39:43.826Z,0.05
2023-03-12T18:42:14.724Z,0.12
2023-03-12T18:44:43.798Z,0.11
2023-03-12T18:47:12.937Z,0.10
2023-03-12T18:49:42.385Z,0.07
2023-03-12T18:52:21.187Z,0.03
2023-03-12T18:54:50.121Z,-0.03
2023-03-12T18:57:22.132Z,-0.07
2023-03-12T18:59:51.058Z,-0.12
2023-03-12T19:02:21.285Z,-0.17
2023-03-12T19:04:52.288Z,-0.27
2023-03-12T19:07:29.925Z,-0.35
2023-03-12T19:09:59.545Z,-0.40
2023-03-12T19:12:36.608Z,-0.47
2023-03-12T19:15:12.159Z,-0.47
2023-03-12T19:17:41.122Z,-0.50
2023-03-12T19:20:11.489Z,-0.53
2023-03-12T19:22:41.540Z,-0.56
2023-03-12T19:25:11.381Z,-0.55
2023-03-12T19:27:40.216Z,-0.55
2023-03-12T19:30:10.420Z,-0.55
2023-03-12T19:32:44.427Z,-0.53
2023-03-12T19:35:15.436Z,-0.57
2023-03-12T19:37:44.354Z,-0.63
2023-03-12T19:40:14.087Z,-0.68
2023-03-12T19:42:44.414Z,-0.71
2023-03-12T19:45:14.248Z,-0.77
2023-03-12T19:47:43.356Z,-0.84
2023-03-12T19:50:13.021Z,-0.87
2023-03-12T19:52:41.801Z,-0.90
2023-03-12T19:55:12.151Z,-0.90
2023-03-12T19:57:41.608Z,-0.87
2023-03-12T20:00:12.487Z,-0.87
2023-03-12T20:02:41.721Z,-0.92
2023-03-12T20:05:11.111Z,-0.98
2023-03-12T20:07:40.351Z,-1.00
2023-03-12T20:10:10.528Z,-1.04
2023-03-12T20:12:39.875Z,-1.09
2023-03-12T20:15:09.430Z,-1.15
2023-03-12T20:17:38.474Z,-1.20
2023-03-12T20:20:09.164Z,-1.26
2023-03-12T20:22:38.227Z,-1.31
2023-03-12T20:25:07.956Z,-1.37
2023-03-12T20:27:38.684Z,-1.38
2023-03-12T20:30:10.883Z,-1.40
2023-03-12T20:32:39.793Z,-1.41
2023-03-12T20:35:10.718Z,-1.45
2023-03-12T20:37:39.513Z,-1.49
2023-03-12T20:40:09.008Z,-1.53
2023-03-12T20:42:37.873Z,-1.57
